Terminal Aerodrome Forecast
Issued by NWS Burlington, VT

Current Version | Previous Version | Text Only | Print | Product List | Glossary On
Versions: 1 2 3 4 5 6 7 8 9 10 11 12 13 14 15 16 17 18 19 20 21 22 23 24
000 FTUS41 KBTV 160300 AAA TAFBTV TAF AMD KBTV 160329Z 1603/1624 33014G22KT 2SM -SN BR SCT007 OVC012 TEMPO 1603/1605 3/4SM -SN BR OVC007 FM160500 33012G20KT 3SM -SN BR OVC015 FM160600 32012KT P6SM OVC025 FM160900 32012KT P6SM BKN035 FM161300 32014G23KT P6SM SCT035 FM162000 33010KT P6SM SKC=

USA.gov is the U.S. government's official web portal to all federal, state and local government web resources and services.